Time;durP1;ratioP1;P1;durP2;ratioP2;P2;SDS_P1;SDS_P2;PMS_P1;PMS_P2;Temp;Humidity;BMP_temperature;BMP_pressure;BME280_temperature;BME280_humidity;BME280_pressure;Samples;Min_cycle;Max_cycle;Signal;HPM_P1;HPM_P2
2022/07/03 00:01:47;;;;;;;4.30;2.33;;;;;;;18.57;66.35;100441.72;5119656;28;20864;-67
2022/07/03 00:04:13;;;;;;;3.97;3.07;;;;;;;18.57;66.08;100444.44;5120617;28;20491;-67
2022/07/03 00:06:41;;;;;;;3.37;2.80;;;;;;;18.60;65.70;100441.34;5119830;28;20497;-66
2022/07/03 00:09:08;;;;;;;3.40;2.63;;;;;;;18.63;65.60;100438.28;5120481;28;20476;-67
2022/07/03 00:11:35;;;;;;;3.23;2.83;;;;;;;18.61;66.17;100434.91;5118640;28;20478;-67
2022/07/03 00:14:02;;;;;;;2.83;2.33;;;;;;;18.68;65.59;100432.25;5113993;28;20462;-67
2022/07/03 00:16:28;;;;;;;3.37;2.67;;;;;;;18.64;65.99;100431.81;5119354;28;20951;-67
2022/07/03 00:18:55;;;;;;;3.90;2.90;;;;;;;18.56;66.36;100427.34;5119815;28;20814;-66
2022/07/03 00:21:26;;;;;;;3.70;2.57;;;;;;;18.50;66.82;100435.38;5118484;28;20474;-66
2022/07/03 00:23:57;;;;;;;4.53;2.63;;;;;;;18.49;66.57;100439.97;5118687;28;20986;-66
2022/07/03 00:26:25;;;;;;;4.57;2.50;;;;;;;18.52;66.64;100442.31;5119617;28;20526;-66
2022/07/03 00:28:54;;;;;;;3.43;2.93;;;;;;;18.50;66.72;100444.34;5119499;28;20454;-66
2022/07/03 00:31:21;;;;;;;5.50;2.80;;;;;;;18.44;67.44;100436.97;5119366;28;20477;-66
2022/07/03 00:33:47;;;;;;;3.23;2.93;;;;;;;18.49;67.55;100441.81;5119788;28;20450;-66
2022/07/03 00:36:14;;;;;;;5.03;2.90;;;;;;;18.49;67.88;100442.66;5118934;28;20469;-66
2022/07/03 00:38:43;;;;;;;3.57;3.20;;;;;;;18.48;68.15;100440.16;5119286;28;20495;-66
2022/07/03 00:41:25;;;;;;;3.70;3.40;;;;;;;18.62;68.48;100442.81;5118154;28;20470;-66
2022/07/03 00:43:52;;;;;;;4.80;3.20;;;;;;;18.78;68.43;100441.78;5119186;28;20549;-66
2022/07/03 00:46:22;;;;;;;4.67;3.50;;;;;;;18.69;68.70;100437.50;5118768;28;20482;-66
2022/07/03 00:48:50;;;;;;;5.40;3.40;;;;;;;18.61;69.00;100438.44;5120280;28;20454;-66
2022/07/03 00:51:19;;;;;;;3.10;2.80;;;;;;;18.78;69.01;100427.38;5117977;28;22001;-67
2022/07/03 00:53:47;;;;;;;2.80;2.60;;;;;;;18.77;68.37;100423.84;5117906;28;20442;-66
2022/07/03 00:56:17;;;;;;;4.30;3.50;;;;;;;18.72;69.69;100425.47;5118782;28;20500;-66
2022/07/03 00:58:44;;;;;;;3.73;2.90;;;;;;;18.58;71.09;100419.88;5118679;28;20470;-66
2022/07/03 01:01:12;;;;;;;3.20;2.90;;;;;;;18.38;71.17;100413.34;5118255;28;20478;-66
2022/07/03 01:03:41;;;;;;;5.10;3.83;;;;;;;18.35;71.03;100408.31;5118517;28;20473;-66
2022/07/03 01:06:12;;;;;;;4.07;3.53;;;;;;;18.36;71.16;100404.59;5119380;28;20480;-66
2022/07/03 01:08:43;;;;;;;3.93;3.10;;;;;;;18.37;71.45;100398.97;5120171;28;20457;-67
2022/07/03 01:11:22;;;;;;;4.00;3.40;;;;;;;18.26;71.14;100404.84;5118935;28;20495;-67
2022/07/03 01:14:00;;;;;;;4.83;4.07;;;;;;;18.17;71.59;100404.13;5120050;28;20434;-67
2022/07/03 01:16:31;;;;;;;4.00;3.60;;;;;;;18.03;72.12;100408.50;5118965;28;20500;-65
2022/07/03 01:19:10;;;;;;;3.70;3.40;;;;;;;17.95;72.75;100395.06;5120025;28;20856;-66
2022/07/03 01:21:42;;;;;;;5.33;3.50;;;;;;;17.90;72.74;100400.19;5119026;28;20470;-66
2022/07/03 01:24:39;;;;;;;4.70;3.47;;;;;;;17.85;72.65;100397.19;5119394;28;20517;-65
2022/07/03 01:27:09;;;;;;;6.47;4.17;;;;;;;17.74;72.97;100393.06;5119114;28;20545;-66
2022/07/03 01:29:40;;;;;;;4.00;3.70;;;;;;;17.72;72.71;100392.38;5119205;28;20441;-65
2022/07/03 01:32:08;;;;;;;4.87;3.70;;;;;;;17.68;72.76;100388.38;5119023;28;20933;-66
2022/07/03 01:34:35;;;;;;;4.43;4.03;;;;;;;17.62;72.87;100389.09;5120158;28;20446;-66
2022/07/03 01:37:03;;;;;;;3.87;3.47;;;;;;;17.64;72.82;100389.78;5119053;28;20470;-67
2022/07/03 01:39:31;;;;;;;7.37;4.13;;;;;;;17.58;72.67;100387.78;5119410;28;20472;-66
2022/07/03 01:42:00;;;;;;;5.53;3.60;;;;;;;17.47;72.99;100381.81;5118938;28;20482;-67
2022/07/03 01:44:28;;;;;;;4.17;3.63;;;;;;;17.45;73.00;100380.31;5120286;28;20508;-67
2022/07/03 01:46:58;;;;;;;4.27;3.40;;;;;;;17.42;73.13;100381.50;5118789;28;20492;-66
2022/07/03 01:49:27;;;;;;;5.13;3.70;;;;;;;17.37;73.35;100381.22;5119713;28;20963;-66
2022/07/03 01:51:54;;;;;;;4.20;3.53;;;;;;;17.31;73.54;100380.09;5117623;28;20822;-65
2022/07/03 01:54:21;;;;;;;4.60;3.53;;;;;;;17.28;73.52;100380.44;5106747;28;20430;-65
2022/07/03 01:56:48;;;;;;;4.57;3.90;;;;;;;17.26;73.77;100381.66;5122799;28;20504;-65
2022/07/03 01:59:15;;;;;;;6.87;4.23;;;;;;;17.21;74.24;100375.94;5123546;28;20450;-66
2022/07/03 02:01:49;;;;;;;5.50;4.40;;;;;;;17.15;74.09;100376.66;5122032;28;20466;-66
2022/07/03 02:04:24;;;;;;;3.50;3.20;;;;;;;17.11;74.64;100371.63;5123501;28;20461;-66
2022/07/03 02:06:57;;;;;;;3.77;3.40;;;;;;;17.07;74.81;100377.56;5121363;28;20476;-65
2022/07/03 02:09:30;;;;;;;4.33;3.93;;;;;;;17.08;75.12;100371.13;5123506;28;20496;-66
2022/07/03 02:11:58;;;;;;;4.03;3.63;;;;;;;17.04;75.08;100373.34;5121536;28;20535;-65
2022/07/03 02:14:26;;;;;;;5.33;4.23;;;;;;;17.01;75.25;100364.78;5123495;28;20444;-66
2022/07/03 02:17:00;;;;;;;6.13;4.60;;;;;;;16.95;75.91;100363.66;5121590;28;20474;-66
2022/07/03 02:19:34;;;;;;;3.90;3.30;;;;;;;17.05;75.34;100358.00;5122634;28;20485;-64
2022/07/03 02:22:01;;;;;;;4.30;3.90;;;;;;;17.02;75.41;100358.38;5120685;28;20486;-64
2022/07/03 02:24:29;;;;;;;4.23;3.80;;;;;;;16.90;75.41;100364.16;5122632;28;20660;-65
2022/07/03 02:26:57;;;;;;;4.93;4.00;;;;;;;16.88;75.50;100362.69;5121846;28;20481;-65
2022/07/03 02:29:32;;;;;;;5.40;3.80;;;;;;;16.82;75.67;100363.34;5122396;28;20449;-64
2022/07/03 02:32:03;;;;;;;4.33;3.93;;;;;;;16.77;75.97;100355.81;5121667;28;20484;-65
2022/07/03 02:34:31;;;;;;;4.10;3.70;;;;;;;16.72;76.40;100358.19;5122166;28;20754;-64
2022/07/03 02:37:05;;;;;;;3.40;3.10;;;;;;;16.74;76.19;100366.97;5121467;28;20487;-63
2022/07/03 02:39:36;;;;;;;5.30;3.40;;;;;;;16.72;76.46;100361.72;5123225;28;20437;-64
2022/07/03 02:42:05;;;;;;;5.30;3.87;;;;;;;16.67;76.26;100360.59;5121437;28;20519;-66
2022/07/03 02:44:36;;;;;;;4.47;3.80;;;;;;;16.65;76.12;100365.34;5122799;28;20500;-66
2022/07/03 02:47:15;;;;;;;4.07;3.77;;;;;;;16.59;75.99;100361.47;5121054;28;20487;-65
2022/07/03 02:49:44;;;;;;;6.30;3.00;;;;;;;16.58;75.69;100362.50;5111707;28;20511;-65
2022/07/03 02:52:22;;;;;;;3.97;3.57;;;;;;;16.58;75.68;100370.59;5120952;28;20614;-65
2022/07/03 02:54:49;;;;;;;6.70;3.30;;;;;;;16.57;75.45;100374.31;5122477;28;20736;-67
2022/07/03 02:57:18;;;;;;;6.20;4.10;;;;;;;16.56;75.88;100373.47;5122348;28;20905;-66
2022/07/03 02:59:55;;;;;;;3.70;3.27;;;;;;;16.55;75.91;100379.88;5122205;28;20881;-65
2022/07/03 03:02:41;;;;;;;4.20;3.87;;;;;;;16.42;75.41;100387.69;5121766;28;20837;-65
2022/07/03 03:05:13;;;;;;;4.40;4.00;;;;;;;16.37;75.80;100390.09;5108371;28;20490;-66
2022/07/03 03:07:47;;;;;;;4.00;3.70;;;;;;;16.40;75.21;100383.50;5121317;28;20499;-65
2022/07/03 03:10:15;;;;;;;3.37;3.03;;;;;;;16.41;74.91;100386.03;5121022;28;20752;-65
2022/07/03 03:12:42;;;;;;;5.03;4.07;;;;;;;16.45;74.96;100391.91;5121782;28;20466;-66
2022/07/03 03:15:12;;;;;;;4.07;3.43;;;;;;;16.37;74.84;100392.78;5121334;28;20462;-67
2022/07/03 03:17:44;;;;;;;4.27;3.80;;;;;;;16.44;74.75;100387.50;5121613;28;20466;-66
2022/07/03 03:20:15;;;;;;;6.83;3.57;;;;;;;16.34;74.53;100396.66;5121199;28;20457;-67
2022/07/03 03:22:56;;;;;;;4.27;3.90;;;;;;;16.50;74.14;100389.53;5121433;28;20470;-66
2022/07/03 03:25:23;;;;;;;4.50;3.23;;;;;;;16.50;73.76;100398.44;5121255;28;20443;-65
2022/07/03 03:27:49;;;;;;;5.03;3.47;;;;;;;16.93;72.72;100387.28;5120973;28;20939;-65
2022/07/03 03:30:16;;;;;;;4.77;4.20;;;;;;;17.67;69.28;100387.53;5104667;28;20514;-66
2022/07/03 03:32:44;;;;;;;5.97;3.80;;;;;;;18.36;66.80;100391.88;5122318;28;20446;-66
2022/07/03 03:35:11;;;;;;;4.63;3.53;;;;;;;18.14;66.55;100392.81;5120422;28;20478;-66
2022/07/03 03:37:38;;;;;;;5.50;3.27;;;;;;;17.54;68.90;100395.44;5120400;28;20518;-67
2022/07/03 03:40:06;;;;;;;4.83;3.43;;;;;;;17.67;68.14;100384.84;5120834;28;20434;-66
2022/07/03 03:42:32;;;;;;;3.43;3.00;;;;;;;20.03;61.21;100390.88;5120547;28;20458;-65
2022/07/03 03:44:59;;;;;;;3.40;3.07;;;;;;;20.81;57.54;100396.03;5121870;28;20492;-66
2022/07/03 03:47:26;;;;;;;3.23;2.60;;;;;;;22.02;53.91;100396.16;5119651;28;20504;-66
2022/07/03 03:49:54;;;;;;;3.10;2.60;;;;;;;23.25;50.23;100401.53;5120981;28;20438;-67
2022/07/03 03:52:21;;;;;;;5.90;2.80;;;;;;;23.90;47.76;100389.47;5120103;28;20845;-66
2022/07/03 03:54:48;;;;;;;3.27;2.93;;;;;;;22.35;51.09;100391.47;5121610;28;20465;-66
2022/07/03 03:57:19;;;;;;;2.70;2.37;;;;;;;24.01;47.27;100388.72;5120447;28;20481;-66
2022/07/03 03:59:45;;;;;;;3.30;3.00;;;;;;;24.10;46.75;100383.81;5121265;28;20426;-66
2022/07/03 04:02:13;;;;;;;3.03;2.70;;;;;;;23.97;47.18;100381.22;5120469;28;20484;-66
2022/07/03 04:04:40;;;;;;;2.70;2.50;;;;;;;24.11;46.93;100387.38;5120569;28;21009;-66
2022/07/03 04:07:08;;;;;;;2.50;2.30;;;;;;;24.61;46.00;100384.50;5119913;28;20482;-65
2022/07/03 04:09:35;;;;;;;3.23;2.90;;;;;;;24.51;45.60;100382.28;5120009;28;20465;-67
2022/07/03 04:12:01;;;;;;;3.40;3.07;;;;;;;25.84;43.35;100384.94;5120300;28;20750;-66
2022/07/03 04:14:28;;;;;;;3.00;2.80;;;;;;;25.71;42.74;100377.81;5120455;28;20430;-66
2022/07/03 04:16:55;;;;;;;4.43;2.67;;;;;;;26.62;40.41;100380.09;5118203;28;20485;-66
2022/07/03 04:19:22;;;;;;;6.23;3.07;;;;;;;26.90;39.55;100378.44;5120783;28;20458;-67
2022/07/03 04:21:49;;;;;;;3.37;2.60;;;;;;;26.40;40.88;100382.63;5120507;28;20482;-65
2022/07/03 04:24:17;;;;;;;4.07;2.37;;;;;;;26.37;41.27;100383.13;5120477;28;20477;-65
2022/07/03 04:26:44;;;;;;;4.30;3.00;;;;;;;26.03;41.01;100387.59;5119339;28;20482;-65
2022/07/03 04:29:10;;;;;;;8.30;2.70;;;;;;;26.24;41.76;100376.00;5120433;28;20472;-64
2022/07/03 04:31:37;;;;;;;2.93;2.60;;;;;;;26.28;40.94;100385.41;5119578;28;20501;-67
2022/07/03 04:34:04;;;;;;;6.17;2.97;;;;;;;25.40;42.20;100391.78;5120207;28;20985;-68
2022/07/03 04:36:30;;;;;;;4.37;2.63;;;;;;;26.32;40.89;100377.53;5119784;28;20482;-66
2022/07/03 04:38:57;;;;;;;2.73;2.40;;;;;;;26.41;39.66;100383.47;5121328;28;20472;-65
2022/07/03 04:41:25;;;;;;;5.23;2.90;;;;;;;27.09;39.05;100395.50;5119056;28;20501;-65
2022/07/03 04:43:52;;;;;;;6.20;2.57;;;;;;;25.77;40.94;100397.09;5120017;28;20489;-66
2022/07/03 04:46:18;;;;;;;2.90;2.60;;;;;;;27.06;38.92;100401.50;5118491;28;20493;-67
2022/07/03 04:48:45;;;;;;;3.10;2.60;;;;;;;26.83;39.02;100400.50;5120839;28;20475;-67
2022/07/03 04:51:12;;;;;;;3.00;2.70;;;;;;;26.68;38.85;100392.00;5118788;28;20476;-67
2022/07/03 04:53:39;;;;;;;3.90;2.30;;;;;;;27.50;37.80;100392.66;5119338;28;20453;-68
2022/07/03 04:56:06;;;;;;;2.53;2.20;;;;;;;29.15;33.95;100398.44;5118529;28;20509;-65
2022/07/03 04:58:34;;;;;;;3.30;2.10;;;;;;;29.22;33.38;100394.41;5119381;28;20450;-65
2022/07/03 05:01:00;;;;;;;3.27;2.27;;;;;;;29.36;33.01;100396.75;5116887;28;20509;-64
2022/07/03 05:03:27;;;;;;;3.33;2.40;;;;;;;29.46;32.84;100403.16;5117949;28;20465;-64
2022/07/03 05:05:54;;;;;;;3.00;2.47;;;;;;;28.88;33.51;100391.84;5118501;28;20482;-64
2022/07/03 05:08:21;;;;;;;2.80;1.73;;;;;;;28.05;34.84;100396.56;5119252;28;20462;-65
2022/07/03 05:10:47;;;;;;;2.90;2.07;;;;;;;27.64;35.86;100396.75;5119227;28;20477;-65
2022/07/03 05:13:14;;;;;;;4.77;2.77;;;;;;;27.73;35.69;100397.16;5120017;28;20437;-64
2022/07/03 05:15:42;;;;;;;3.77;2.20;;;;;;;29.00;33.35;100393.63;5118376;28;20561;-65
2022/07/03 05:18:09;;;;;;;2.87;2.07;;;;;;;27.66;35.99;100400.09;5120409;28;20502;-64
2022/07/03 05:20:36;;;;;;;2.43;2.10;;;;;;;28.84;33.60;100382.44;5119449;28;21036;-64
2022/07/03 05:23:03;;;;;;;4.43;2.07;;;;;;;28.14;34.18;100395.88;5119090;28;20450;-65
2022/07/03 05:25:31;;;;;;;2.70;2.30;;;;;;;28.10;34.07;100391.97;5119596;28;21061;-64
2022/07/03 05:27:58;;;;;;;4.60;1.90;;;;;;;28.70;33.74;100405.97;5121224;28;20460;-65
2022/07/03 05:30:26;;;;;;;3.70;2.30;;;;;;;30.32;30.58;100406.78;5122849;28;20445;-65
2022/07/03 05:32:54;;;;;;;3.37;1.90;;;;;;;30.04;31.29;100406.06;5124102;28;20442;-65
2022/07/03 05:35:21;;;;;;;2.63;1.90;;;;;;;27.92;35.00;100408.75;5122524;28;20509;-64
2022/07/03 05:37:48;;;;;;;3.47;1.97;;;;;;;29.70;32.20;100419.31;5123413;28;20503;-64
2022/07/03 05:40:14;;;;;;;4.97;2.03;;;;;;;28.70;33.36;100416.97;5123693;28;20432;-64
2022/07/03 05:42:40;;;;;;;2.30;1.80;;;;;;;29.51;32.67;100420.81;5123801;28;20430;-65
2022/07/03 05:45:08;;;;;;;2.47;1.90;;;;;;;29.85;31.74;100424.97;5123473;28;20466;-65
2022/07/03 05:47:35;;;;;;;3.20;2.07;;;;;;;28.63;33.70;100425.41;5121548;28;20471;-64
2022/07/03 05:50:03;;;;;;;2.93;2.43;;;;;;;27.13;36.56;100428.78;5121262;28;20430;-67
2022/07/03 05:52:30;;;;;;;2.10;1.73;;;;;;;27.23;36.83;100431.72;5121527;28;20474;-64
2022/07/03 05:54:57;;;;;;;3.57;2.30;;;;;;;28.31;36.07;100437.06;5123743;28;20430;-64
2022/07/03 05:57:23;;;;;;;4.83;2.20;;;;;;;29.23;33.55;100426.34;5123386;28;20480;-65
2022/07/03 05:59:50;;;;;;;2.83;1.93;;;;;;;30.26;31.12;100438.19;5123871;28;20465;-64
2022/07/03 06:02:17;;;;;;;2.70;2.27;;;;;;;29.93;31.74;100434.69;5122745;28;20505;-64
2022/07/03 06:04:43;;;;;;;2.60;2.00;;;;;;;30.73;30.86;100431.81;5123935;28;20462;-65
2022/07/03 06:07:11;;;;;;;2.70;2.13;;;;;;;29.81;32.44;100434.88;5122699;28;20499;-65
2022/07/03 06:09:38;;;;;;;3.30;2.17;;;;;;;31.53;29.09;100427.88;5121468;28;20485;-65
2022/07/03 06:12:05;;;;;;;2.13;1.50;;;;;;;32.11;27.20;100427.56;5121360;28;21093;-65
2022/07/03 06:14:32;;;;;;;2.00;1.80;;;;;;;32.40;27.61;100432.47;5122576;28;20621;-65
2022/07/03 06:16:59;;;;;;;2.70;1.57;;;;;;;31.81;27.84;100429.25;5121798;28;20491;-65
2022/07/03 06:19:25;;;;;;;5.27;1.40;;;;;;;32.07;27.77;100432.00;5122676;28;21002;-65
2022/07/03 06:21:52;;;;;;;2.63;1.53;;;;;;;32.19;27.19;100434.47;5118318;28;21022;-65
2022/07/03 06:24:20;;;;;;;2.50;1.50;;;;;;;32.39;26.65;100434.38;5115183;28;20891;-65
2022/07/03 06:26:47;;;;;;;3.20;1.70;;;;;;;32.91;26.12;100423.09;5122479;28;20520;-65
2022/07/03 06:29:14;;;;;;;4.00;1.77;;;;;;;32.33;26.90;100431.94;5123338;28;20484;-65
2022/07/03 06:31:40;;;;;;;1.87;1.60;;;;;;;31.83;27.88;100429.78;5121852;28;20500;-66
2022/07/03 06:34:07;;;;;;;4.17;1.80;;;;;;;31.86;28.25;100437.53;5122712;28;20506;-66
2022/07/03 06:36:34;;;;;;;3.70;1.80;;;;;;;31.46;28.14;100436.41;5122600;28;20504;-66
2022/07/03 06:39:00;;;;;;;4.20;2.27;;;;;;;30.95;28.95;100436.31;5121718;28;20474;-66
2022/07/03 06:41:30;;;;;;;4.43;2.27;;;;;;;32.00;27.67;100434.19;5121781;28;20470;-65
2022/07/03 06:43:57;;;;;;;2.30;1.70;;;;;;;32.98;26.01;100423.63;5122459;28;20475;-66
2022/07/03 06:46:23;;;;;;;4.40;1.60;;;;;;;32.85;26.56;100427.84;5121046;28;20485;-66
2022/07/03 06:48:50;;;;;;;3.50;1.77;;;;;;;33.35;25.46;100433.34;5121570;28;20993;-65
2022/07/03 06:51:17;;;;;;;2.93;2.00;;;;;;;32.89;26.03;100442.78;5120400;28;20474;-64
2022/07/03 06:53:44;;;;;;;3.80;1.83;;;;;;;32.56;27.62;100438.75;5121357;28;20453;-65
2022/07/03 06:56:10;;;;;;;5.70;2.17;;;;;;;32.84;26.43;100429.78;5115445;28;20967;-65
2022/07/03 06:58:38;;;;;;;2.00;1.40;;;;;;;34.24;24.68;100444.25;5121955;28;20446;-65
2022/07/03 07:01:05;;;;;;;1.90;1.57;;;;;;;35.25;23.12;100440.44;5120982;28;21082;-65
2022/07/03 07:03:32;;;;;;;1.40;1.20;;;;;;;33.50;25.85;100446.28;5122295;28;20434;-65
2022/07/03 07:05:58;;;;;;;1.20;1.10;;;;;;;34.62;24.89;100449.91;5121674;28;20542;-65
2022/07/03 07:08:25;;;;;;;2.53;1.53;;;;;;;34.35;24.90;100446.91;5122026;28;21031;-65
2022/07/03 07:10:52;;;;;;;1.40;1.30;;;;;;;33.97;25.52;100455.88;5121216;28;20994;-65
2022/07/03 07:13:18;;;;;;;2.90;1.40;;;;;;;33.72;26.21;100448.63;5121975;28;20462;-65
2022/07/03 07:15:46;;;;;;;2.50;1.73;;;;;;;35.53;23.57;100446.13;5120894;28;20534;-64
2022/07/03 07:18:13;;;;;;;3.50;1.40;;;;;;;33.55;25.75;100441.50;5122037;28;21054;-65
2022/07/03 07:20:40;;;;;;;2.50;1.57;;;;;;;35.48;23.45;100448.16;5121551;28;20534;-67
2022/07/03 07:23:07;;;;;;;1.67;1.37;;;;;;;34.21;24.71;100447.59;5121454;28;20462;-63
2022/07/03 07:25:33;;;;;;;3.23;1.13;;;;;;;35.89;22.99;100448.31;5121604;28;21053;-64
2022/07/03 07:28:00;;;;;;;2.07;1.17;;;;;;;36.44;22.13;100441.16;5120760;28;20790;-64
2022/07/03 07:30:27;;;;;;;1.20;0.93;;;;;;;36.92;22.18;100449.06;5121193;28;20813;-64
2022/07/03 07:32:55;;;;;;;4.37;1.27;;;;;;;36.70;21.33;100445.09;5122374;28;20461;-64
2022/07/03 07:35:21;;;;;;;1.83;1.20;;;;;;;36.73;21.71;100443.66;5121501;28;20474;-64
2022/07/03 07:37:48;;;;;;;1.73;0.93;;;;;;;35.47;22.43;100441.78;5121222;28;20449;-64
2022/07/03 07:40:15;;;;;;;2.47;1.30;;;;;;;34.87;24.15;100447.94;5120631;28;20506;-65
2022/07/03 07:42:42;;;;;;;2.27;1.40;;;;;;;34.95;23.31;100452.81;5121288;28;20442;-65
2022/07/03 07:45:10;;;;;;;3.33;0.90;;;;;;;34.56;22.50;100445.53;5119465;27;20470;-64
2022/07/03 07:47:36;;;;;;;2.27;1.10;;;;;;;35.63;22.02;100457.06;5118083;28;20519;-64
2022/07/03 07:50:05;;;;;;;1.50;0.80;;;;;;;35.51;21.31;100453.13;5119997;28;20487;-64
2022/07/03 07:52:32;;;;;;;2.37;1.03;;;;;;;35.18;22.36;100465.00;5120943;28;20465;-64
2022/07/03 07:54:59;;;;;;;1.77;1.17;;;;;;;36.36;21.76;100462.22;5120185;28;20426;-64
2022/07/03 07:57:26;;;;;;;2.30;1.13;;;;;;;36.70;20.78;100467.41;5103808;28;20503;-65
2022/07/03 07:59:53;;;;;;;2.90;1.00;;;;;;;37.63;19.44;100468.88;5106194;27;20494;-66
2022/07/03 08:07:50;;;;;;;2.50;0.80;;;;;;;34.22;22.84;100465.06;5118994;28;20879;-65
2022/07/03 08:10:18;;;;;;;2.10;1.00;;;;;;;35.86;21.47;100473.16;5118803;28;20434;-65
2022/07/03 08:12:45;;;;;;;3.77;1.03;;;;;;;35.38;22.28;100469.47;5120318;28;20478;-65
2022/07/03 08:15:11;;;;;;;2.70;1.17;;;;;;;34.55;23.85;100477.22;5120428;28;20415;-65
2022/07/03 08:17:38;;;;;;;3.10;1.10;;;;;;;34.83;24.01;100475.47;5119451;28;20443;-65
2022/07/03 08:20:08;;;;;;;1.40;0.83;;;;;;;36.91;20.80;100469.75;5120419;28;20474;-65
2022/07/03 08:22:35;;;;;;;7.80;1.20;;;;;;;34.75;23.05;100465.03;5119494;28;20482;-65
2022/07/03 08:25:02;;;;;;;1.67;0.93;;;;;;;33.67;24.07;100459.75;5119755;28;20498;-65
2022/07/03 08:27:28;;;;;;;2.07;1.10;;;;;;;34.58;22.14;100470.22;5119306;28;20478;-66
2022/07/03 08:29:55;;;;;;;1.73;1.03;;;;;;;34.52;22.62;100459.16;5118139;28;20481;-66
2022/07/03 08:32:22;;;;;;;3.07;0.70;;;;;;;32.79;23.05;100454.75;5118246;28;20552;-66
2022/07/03 08:34:48;;;;;;;2.53;0.73;;;;;;;32.10;25.10;100450.81;5118850;28;20532;-66
2022/07/03 08:37:17;;;;;;;1.40;0.70;;;;;;;35.03;20.74;100456.88;5119107;28;20522;-66
2022/07/03 08:39:43;;;;;;;1.17;0.60;;;;;;;35.40;19.24;100446.91;5118273;28;20527;-66
2022/07/03 08:42:12;;;;;;;1.73;0.60;;;;;;;35.67;20.07;100453.69;5117765;28;20509;-66
2022/07/03 08:44:40;;;;;;;1.50;0.77;;;;;;;36.53;19.42;100456.84;5119503;28;20471;-67
2022/07/03 08:47:08;;;;;;;2.37;0.50;;;;;;;32.65;23.36;100460.06;5116827;28;20481;-66
2022/07/03 08:49:35;;;;;;;3.90;0.90;;;;;;;33.22;22.03;100445.94;5119287;28;20533;-66
2022/07/03 08:52:02;;;;;;;1.57;0.70;;;;;;;34.91;20.53;100450.94;5118769;28;20519;-66
2022/07/03 08:54:31;;;;;;;3.23;0.80;;;;;;;36.18;19.84;100458.38;5118254;28;20446;-66
2022/07/03 08:56:58;;;;;;;2.40;0.50;;;;;;;34.15;21.03;100455.13;5119070;28;20504;-66
2022/07/03 08:59:25;;;;;;;1.67;0.70;;;;;;;33.54;22.59;100455.66;5119350;28;20450;-66
2022/07/03 09:01:53;;;;;;;2.20;0.90;;;;;;;33.91;21.72;100460.66;5118880;28;20478;-66
2022/07/03 09:04:19;;;;;;;2.80;1.17;;;;;;;32.75;22.06;100455.59;5119404;28;20442;-66
2022/07/03 09:06:46;;;;;;;1.53;0.77;;;;;;;32.45;24.33;100463.69;5119169;28;20547;-66
2022/07/03 09:09:13;;;;;;;3.20;1.20;;;;;;;32.81;24.08;100462.75;5118412;28;20446;-66
2022/07/03 09:11:41;;;;;;;4.10;1.10;;;;;;;33.77;22.47;100462.44;5118691;28;20478;-66
2022/07/03 09:14:07;;;;;;;2.23;0.80;;;;;;;34.57;22.81;100466.63;5119203;28;20434;-66
2022/07/03 09:16:37;;;;;;;2.00;1.27;;;;;;;35.71;21.83;100463.94;5117164;28;20466;-66
2022/07/03 09:19:04;;;;;;;1.30;0.83;;;;;;;33.10;24.54;100462.03;5118910;28;20504;-64
2022/07/03 09:21:41;;;;;;;1.70;1.17;;;;;;;34.85;22.13;100462.13;5117736;28;20557;-64
2022/07/03 09:24:09;;;;;;;1.90;0.90;;;;;;;35.35;21.48;100458.13;5118492;28;20473;-65
2022/07/03 09:26:36;;;;;;;1.73;0.77;;;;;;;35.44;21.15;100461.84;5119654;28;20576;-64
2022/07/03 09:29:06;;;;;;;3.00;1.30;;;;;;;33.91;22.47;100463.41;5119388;28;20454;-65
2022/07/03 09:31:33;;;;;;;1.80;0.90;;;;;;;37.01;19.95;100461.13;5118445;28;20502;-66
2022/07/03 09:34:01;;;;;;;1.77;0.80;;;;;;;35.61;21.25;100456.56;5120108;28;20438;-66
2022/07/03 09:36:44;;;;;;;3.70;1.10;;;;;;;36.63;20.29;100461.38;5119534;28;20606;-66
2022/07/03 09:39:16;;;;;;;2.90;1.33;;;;;;;36.61;20.31;100458.06;5118534;28;20443;-66
2022/07/03 09:41:57;;;;;;;1.60;0.80;;;;;;;36.32;19.70;100455.63;5119409;28;20466;-66
2022/07/03 09:44:33;;;;;;;1.93;0.80;;;;;;;35.58;19.00;100456.34;5119573;28;20431;-66
2022/07/03 09:47:14;;;;;;;3.47;0.80;;;;;;;34.50;21.46;100452.28;5107290;28;20556;-66
2022/07/03 09:49:50;;;;;;;2.50;0.70;;;;;;;36.07;19.19;100452.16;5119349;28;20485;-66
2022/07/03 09:52:33;;;;;;;1.93;0.80;;;;;;;36.25;20.01;100455.19;5119006;28;20509;-66
2022/07/03 09:55:02;;;;;;;1.37;0.70;;;;;;;36.05;19.09;100459.16;5118885;28;20469;-66
2022/07/03 09:57:29;;;;;;;2.17;0.70;;;;;;;36.44;18.77;100453.16;5119564;28;20470;-66
2022/07/03 10:00:27;;;;;;;3.37;1.10;;;;;;;35.06;21.19;100448.75;5119952;28;20446;-66
2022/07/03 10:02:56;;;;;;;2.60;1.00;;;;;;;35.22;20.81;100452.16;5055798;28;20520;-66
2022/07/03 10:05:27;;;;;;;3.00;0.83;;;;;;;33.52;20.75;100452.34;5104787;28;20529;-66
2022/07/03 10:07:55;;;;;;;1.70;0.70;;;;;;;33.76;21.29;100452.47;5118241;28;20681;-66
2022/07/03 10:10:23;;;;;;;1.57;1.00;;;;;;;32.29;23.97;100456.56;5119039;28;20446;-66
2022/07/03 10:12:51;;;;;;;3.07;1.00;;;;;;;33.11;23.09;100449.88;5119988;28;20527;-66
2022/07/03 10:15:18;;;;;;;2.67;1.00;;;;;;;34.56;20.58;100450.25;5119634;28;20645;-66
2022/07/03 10:17:48;;;;;;;1.00;0.60;;;;;;;35.41;20.77;100454.94;5123257;28;20984;-66
2022/07/03 10:20:15;;;;;;;4.10;0.70;;;;;;;35.08;20.44;100452.06;5122616;28;20454;-66
2022/07/03 10:22:43;;;;;;;1.47;0.73;;;;;;;35.53;20.49;100440.56;5122399;28;20457;-65
2022/07/03 10:25:10;;;;;;;1.77;0.83;;;;;;;36.10;19.11;100447.94;5121351;28;20497;-65
2022/07/03 10:27:37;;;;;;;1.73;0.70;;;;;;;34.86;20.13;100443.50;5122975;28;20442;-65
2022/07/03 10:30:04;;;;;;;2.10;0.70;;;;;;;35.61;19.21;100442.66;5122440;28;20516;-64
2022/07/03 10:32:33;;;;;;;2.70;0.80;;;;;;;35.40;19.37;100441.34;5122184;28;20507;-65
2022/07/03 10:35:02;;;;;;;1.40;0.80;;;;;;;36.60;19.92;100450.88;5122409;28;20874;-64
2022/07/03 10:37:34;;;;;;;2.93;0.80;;;;;;;36.59;19.12;100448.38;5121203;28;20556;-65
2022/07/03 10:45:32;;;;;;;2.47;0.80;;;;;;;33.04;22.31;100444.63;5110833;28;20539;-65
2022/07/03 10:47:58;;;;;;;1.67;0.70;;;;;;;32.24;23.08;100443.56;5121419;28;20529;-64
2022/07/03 10:50:26;;;;;;;2.27;0.70;;;;;;;31.56;25.37;100445.81;5122063;28;20446;-65
2022/07/03 10:52:53;;;;;;;1.93;0.70;;;;;;;29.87;26.78;100435.75;5121447;28;20442;-64
2022/07/03 10:55:20;;;;;;;2.80;0.80;;;;;;;30.21;27.44;100435.41;5121747;28;20442;-64
2022/07/03 10:58:07;;;;;;;2.80;1.00;;;;;;;30.91;28.32;100437.94;5122118;28;20434;-64
2022/07/03 11:00:52;;;;;;;1.83;1.10;;;;;;;32.87;24.34;100431.16;5121128;28;20470;-64
2022/07/03 11:03:54;;;;;;;2.10;0.80;;;;;;;33.66;23.65;100431.19;5122645;28;20441;-64
2022/07/03 11:06:36;;;;;;;4.10;1.07;;;;;;;34.74;22.28;100426.44;5121599;28;20485;-65
2022/07/03 11:09:03;;;;;;;1.63;0.90;;;;;;;33.24;22.42;100421.53;5121173;28;20442;-67
2022/07/03 11:11:57;;;;;;;5.13;1.00;;;;;;;33.73;22.25;100419.75;5121388;28;20492;-65
2022/07/03 11:14:25;;;;;;;1.70;0.90;;;;;;;32.94;22.49;100414.22;5121325;28;20787;-65
2022/07/03 11:17:19;;;;;;;2.20;0.90;;;;;;;33.06;23.11;100411.13;5120813;28;20834;-66
2022/07/03 11:20:23;;;;;;;1.10;0.60;;;;;;;33.25;23.30;100423.19;5121616;28;20896;-64
2022/07/03 11:22:44;;;;;;;4.80;1.13;;;;;;;33.35;23.42;100422.28;5119527;28;20467;-65
2022/07/03 11:25:11;;;;;;;4.23;1.00;;;;;;;33.43;23.37;100418.06;5120379;28;20749;-65
2022/07/03 11:27:38;;;;;;;1.73;0.67;;;;;;;33.90;20.93;100411.81;5121482;28;20512;-65
2022/07/03 11:30:05;;;;;;;4.00;0.80;;;;;;;34.60;19.65;100402.19;5121105;28;20452;-65
2022/07/03 11:32:52;;;;;;;3.67;0.73;;;;;;;32.73;22.18;100394.97;5121435;28;20454;-64
2022/07/03 11:35:45;;;;;;;3.73;0.97;;;;;;;31.90;25.41;100405.44;5120646;28;20477;-65
2022/07/03 11:38:15;;;;;;;2.10;0.80;;;;;;;31.04;26.76;100406.25;5120795;28;20450;-65
2022/07/03 11:40:43;;;;;;;2.47;0.90;;;;;;;30.56;26.33;100404.44;5120536;28;20460;-65
2022/07/03 11:43:11;;;;;;;2.43;0.87;;;;;;;31.87;25.11;100410.69;5121801;28;20521;-66
2022/07/03 11:45:39;;;;;;;1.17;0.67;;;;;;;31.44;24.92;100412.91;5118548;28;20474;-65